Time;durP1;ratioP1;P1;durP2;ratioP2;P2;SDS_P1;SDS_P2;PMS_P1;PMS_P2;Temp;Humidity;BMP_temperature;BMP_pressure;BME280_temperature;BME280_humidity;BME280_pressure;Samples;Min_cycle;Max_cycle;Signal;HPM_P1;HPM_P2
2022/04/01 00:00:01;;;;;;;24.15;16.98;;;0.90;99.90;;;;;;5075014;28;20020;-78
2022/04/01 00:02:27;;;;;;;22.13;17.23;;;0.90;99.90;;;;;;5074808;28;20037;-76
2022/04/01 00:04:53;;;;;;;22.33;16.05;;;1.00;99.90;;;;;;5056653;28;20769;-77
2022/04/01 00:07:19;;;;;;;23.08;17.83;;;1.00;99.90;;;;;;5074752;28;20114;-77
2022/04/01 00:09:45;;;;;;;29.25;19.77;;;0.90;99.90;;;;;;5074495;28;20478;-78
2022/04/01 00:12:11;;;;;;;26.85;18.23;;;1.00;99.90;;;;;;5074655;28;20039;-78
2022/04/01 00:14:38;;;;;;;31.27;19.30;;;1.00;99.90;;;;;;5081039;28;20016;-79
2022/04/01 00:17:04;;;;;;;23.70;17.27;;;1.00;99.90;;;;;;5094831;28;20081;-77
2022/04/01 00:19:30;;;;;;;24.58;16.55;;;1.00;99.90;;;;;;5094823;28;20016;-76
2022/04/01 00:21:56;;;;;;;17.90;12.70;;;0.90;99.90;;;;;;5094622;28;20028;-77
2022/04/01 00:24:22;;;;;;;20.75;15.15;;;0.80;99.90;;;;;;5094736;28;20370;-76
2022/04/01 00:26:49;;;;;;;22.48;17.20;;;0.80;99.90;;;;;;5095820;28;20024;-76
2022/04/01 00:29:15;;;;;;;25.25;17.63;;;0.80;99.90;;;;;;5095250;28;20016;-77
2022/04/01 00:31:43;;;;;;;24.52;18.25;;;0.70;99.90;;;;;;5076924;28;20024;-78
2022/04/01 00:34:18;;;;;;;20.02;13.68;;;0.70;99.90;;;;;;5094696;28;20393;-76
2022/04/01 00:36:46;;;;;;;23.92;15.70;;;0.70;99.90;;;;;;5094446;28;20020;-78
2022/04/01 00:39:13;;;;;;;24.35;17.00;;;0.70;99.90;;;;;;5094462;28;20080;-78
2022/04/01 00:41:39;;;;;;;23.30;18.17;;;0.70;99.90;;;;;;5094313;28;20076;-77
2022/04/01 00:44:18;;;;;;;24.75;17.55;;;0.70;99.90;;;;;;5094265;28;20099;-77
2022/04/01 00:46:46;;;;;;;24.40;15.32;;;0.70;99.90;;;;;;5076114;28;20048;-76
2022/04/01 00:49:12;;;;;;;27.50;17.63;;;0.70;99.90;;;;;;5076092;28;20063;-79
2022/04/01 00:51:41;;;;;;;24.77;15.25;;;0.60;99.90;;;;;;5094159;28;20032;-77
2022/04/01 00:54:08;;;;;;;20.75;15.98;;;0.60;99.90;;;;;;5093347;28;20454;-78
2022/04/01 00:56:35;;;;;;;27.52;18.17;;;0.60;99.90;;;;;;5094149;28;20023;-77
2022/04/01 00:59:02;;;;;;;20.67;14.97;;;0.60;99.90;;;;;;5076015;28;20036;-76
2022/04/01 01:01:33;;;;;;;21.75;12.73;;;0.60;99.90;;;;;;5094068;28;20348;-78
2022/04/01 01:04:07;;;;;;;22.92;16.67;;;0.60;99.90;;;;;;5094121;28;20069;-77
2022/04/01 01:06:37;;;;;;;26.83;17.67;;;0.60;99.90;;;;;;5093986;28;20145;-77
2022/04/01 01:09:03;;;;;;;24.33;17.25;;;0.60;99.90;;;;;;5093915;28;20031;-76
2022/04/01 01:11:31;;;;;;;21.77;15.07;;;0.60;99.90;;;;;;5093693;28;20048;-77
2022/04/01 01:13:57;;;;;;;23.10;16.95;;;0.70;99.90;;;;;;5075758;28;20461;-77
2022/04/01 01:16:23;;;;;;;20.80;15.20;;;0.70;99.90;;;;;;5094127;28;20028;-76
2022/04/01 01:19:00;;;;;;;25.30;16.10;;;0.80;99.90;;;;;;5093807;28;20069;-77
2022/04/01 01:21:27;;;;;;;17.05;13.40;;;0.90;99.90;;;;;;5076219;28;20035;-76
2022/04/01 01:24:11;;;;;;;19.15;13.35;;;0.90;99.90;;;;;;5093584;28;20032;-76
2022/04/01 01:26:41;;;;;;;17.55;12.90;;;1.00;99.90;;;;;;5092651;28;20016;-77
2022/04/01 01:29:07;;;;;;;18.88;13.82;;;1.00;99.90;;;;;;5093492;28;20100;-77
2022/04/01 01:31:33;;;;;;;13.98;9.68;;;1.10;99.90;;;;;;5093452;28;20074;-77
2022/04/01 01:34:07;;;;;;;16.92;11.27;;;1.00;99.90;;;;;;5075149;28;20032;-78
2022/04/01 01:36:33;;;;;;;17.48;12.38;;;0.80;99.90;;;;;;5093461;28;20020;-78
2022/04/01 01:38:59;;;;;;;13.27;11.15;;;0.80;99.90;;;;;;5093227;28;20031;-77
2022/04/01 01:41:25;;;;;;;17.08;10.88;;;0.80;99.90;;;;;;5093042;28;20020;-76
2022/04/01 01:43:51;;;;;;;19.33;12.90;;;0.80;99.90;;;;;;5093165;28;20032;-77
2022/04/01 01:46:17;;;;;;;16.23;10.98;;;0.80;99.90;;;;;;5093190;28;20020;-79
2022/04/01 01:48:43;;;;;;;14.57;10.98;;;0.80;99.90;;;;;;5092960;28;20031;-77
2022/04/01 01:56:39;;;;;;;14.57;9.85;;;0.70;99.90;;;;;;5095282;28;20035;-77
2022/04/01 01:59:06;;;;;;;15.00;10.05;;;0.70;99.90;;;;;;5077007;28;20082;-76
2022/04/01 02:01:32;;;;;;;16.00;10.52;;;0.70;99.90;;;;;;5093057;28;20035;-76
2022/04/01 02:04:01;;;;;;;21.25;11.80;;;0.70;99.90;;;;;;5093068;28;20032;-77
2022/04/01 02:06:27;;;;;;;15.43;12.05;;;0.70;99.90;;;;;;5092878;28;20440;-77
2022/04/01 02:08:54;;;;;;;20.35;11.82;;;0.70;99.90;;;;;;5075157;28;20024;-77
2022/04/01 02:11:21;;;;;;;12.48;8.73;;;0.70;99.90;;;;;;5074363;28;20044;-77
2022/04/01 02:13:49;;;;;;;13.90;11.23;;;0.70;99.90;;;;;;5092532;28;20139;-78
2022/04/01 02:16:16;;;;;;;16.52;12.00;;;0.70;99.90;;;;;;5093046;28;20016;-77
2022/04/01 02:18:42;;;;;;;17.20;10.77;;;0.70;99.90;;;;;;5093338;28;20028;-76
2022/04/01 02:21:11;;;;;;;16.60;11.60;;;0.80;99.90;;;;;;5092684;28;20067;-78
2022/04/01 02:23:45;;;;;;;14.05;10.80;;;0.80;99.90;;;;;;5074116;28;20039;-79
2022/04/01 02:26:12;;;;;;;15.48;10.02;;;0.80;99.90;;;;;;5093273;28;20020;-78
2022/04/01 02:28:39;;;;;;;14.82;11.07;;;0.90;99.90;;;;;;5094092;28;20059;-77
2022/04/01 02:31:06;;;;;;;14.63;10.77;;;0.90;99.90;;;;;;5093188;28;20401;-78
2022/04/01 02:33:32;;;;;;;12.90;10.55;;;0.90;99.90;;;;;;5092486;28;20656;-79
2022/04/01 02:35:59;;;;;;;14.40;10.38;;;0.90;99.90;;;;;;5092584;28;20024;-78
2022/04/01 02:38:25;;;;;;;16.25;12.50;;;0.90;99.90;;;;;;5073912;28;20052;-78
2022/04/01 02:40:53;;;;;;;15.93;11.90;;;0.90;99.90;;;;;;5092233;28;20058;-78
2022/04/01 02:43:19;;;;;;;16.27;10.48;;;0.90;99.90;;;;;;5092269;28;20059;-77
2022/04/01 02:45:48;;;;;;;17.42;11.30;;;0.90;99.90;;;;;;5092075;28;20385;-78
2022/04/01 02:48:17;;;;;;;13.75;11.05;;;0.90;99.90;;;;;;5092530;28;20058;-79
2022/04/01 02:50:48;;;;;;;15.13;10.15;;;0.80;99.90;;;;;;5093326;28;20085;-79
2022/04/01 02:53:17;;;;;;;16.23;10.50;;;0.90;99.90;;;;;;5092160;28;20111;-78
2022/04/01 02:55:44;;;;;;;18.88;14.25;;;0.80;99.90;;;;;;5092176;28;20024;-79
2022/04/01 02:58:10;;;;;;;16.80;12.37;;;0.70;99.90;;;;;;5073958;28;20357;-78
2022/04/01 03:00:38;;;;;;;17.77;13.73;;;0.70;99.90;;;;;;5092244;28;20020;-77
2022/04/01 03:03:08;;;;;;;18.33;10.90;;;0.60;99.90;;;;;;5092632;28;20403;-77
2022/04/01 03:05:34;;;;;;;19.52;12.00;;;0.70;99.90;;;;;;5091979;28;20024;-77
2022/04/01 03:08:01;;;;;;;18.67;12.47;;;0.70;99.90;;;;;;5093050;28;20024;-78
2022/04/01 03:10:27;;;;;;;17.50;12.13;;;0.70;99.90;;;;;;5094138;28;20638;-79
2022/04/01 03:12:53;;;;;;;14.60;10.00;;;0.70;99.90;;;;;;5073806;28;20036;-79
2022/04/01 03:15:19;;;;;;;15.18;11.27;;;0.70;99.90;;;;;;5091949;28;20020;-78
2022/04/01 03:17:45;;;;;;;17.10;12.30;;;0.70;99.90;;;;;;5092175;28;20031;-77
2022/04/01 03:20:13;;;;;;;15.63;11.68;;;0.80;99.90;;;;;;5091990;28;20028;-78
2022/04/01 03:22:43;;;;;;;17.40;11.68;;;0.80;99.90;;;;;;5091852;28;20485;-78
2022/04/01 03:25:19;;;;;;;16.65;12.18;;;0.80;99.90;;;;;;5092628;28;20027;-78
2022/04/01 03:27:46;;;;;;;20.42;14.40;;;0.80;99.90;;;;;;5092312;28;20021;-77
2022/04/01 03:30:13;;;;;;;20.88;13.23;;;0.80;99.90;;;;;;5092135;28;20032;-77
2022/04/01 03:32:40;;;;;;;16.10;11.87;;;0.90;99.90;;;;;;5073802;28;20031;-77
2022/04/01 03:35:16;;;;;;;19.15;14.13;;;0.90;99.90;;;;;;5073725;28;20265;-79
2022/04/01 03:37:45;;;;;;;17.92;12.18;;;1.00;99.90;;;;;;5091854;28;20028;-78
2022/04/01 03:40:14;;;;;;;21.50;13.90;;;1.00;99.90;;;;;;5073365;28;20020;-79
2022/04/01 03:42:41;;;;;;;19.92;13.45;;;1.00;99.90;;;;;;5092004;28;20024;-78
2022/04/01 03:45:07;;;;;;;17.73;11.88;;;0.90;99.90;;;;;;5092669;28;20107;-78
2022/04/01 03:47:38;;;;;;;17.60;12.32;;;0.80;99.90;;;;;;5073660;28;20032;-78
2022/04/01 03:50:07;;;;;;;16.58;11.88;;;0.70;99.90;;;;;;5093989;28;20020;-78
2022/04/01 03:52:33;;;;;;;16.33;13.02;;;0.70;99.90;;;;;;5095933;28;20028;-76
2022/04/01 03:55:06;;;;;;;13.95;11.13;;;0.70;99.90;;;;;;5095796;28;20388;-78
2022/04/01 03:57:38;;;;;;;12.02;6.45;;;0.60;99.90;;;;;;5095260;28;20087;-77
2022/04/01 04:00:07;;;;;;;19.90;11.77;;;0.60;99.90;;;;;;5095478;28;20024;-77
2022/04/01 04:02:34;;;;;;;22.95;13.75;;;0.50;99.90;;;;;;5095204;28;20039;-78
2022/04/01 04:05:03;;;;;;;19.40;12.63;;;0.50;99.90;;;;;;5095200;28;20028;-78
2022/04/01 04:07:31;;;;;;;14.43;10.45;;;0.50;99.90;;;;;;5095291;28;20028;-78
2022/04/01 04:09:59;;;;;;;13.23;8.18;;;0.60;99.90;;;;;;5095813;28;20021;-77
2022/04/01 04:12:27;;;;;;;15.45;11.88;;;0.60;99.90;;;;;;5095560;28;20031;-78
2022/04/01 04:14:53;;;;;;;;;;;0.60;99.90;;;;;;5095400;28;20054;-78
2022/04/01 04:17:35;;;;;;;14.73;10.77;;;0.60;99.90;;;;;;5095053;28;19973;-77
2022/04/01 04:20:02;;;;;;;14.02;11.35;;;0.60;99.90;;;;;;5094852;28;20122;-78
2022/04/01 04:22:47;;;;;;;15.70;10.25;;;0.60;99.90;;;;;;5094836;28;20520;-76
2022/04/01 04:25:14;;;;;;;12.43;10.52;;;0.60;99.90;;;;;;5094506;28;20036;-80
2022/04/01 04:27:51;;;;;;;;;;;0.50;99.90;;;;;;5077220;28;20082;-79
2022/04/01 04:30:19;;;;;;;10.88;8.27;;;0.50;99.90;;;;;;5094831;28;19911;-77
2022/04/01 04:33:04;;;;;;;7.55;6.22;;;0.60;99.90;;;;;;5094503;28;20058;-78
2022/04/01 04:35:30;;;;;;;14.57;10.40;;;0.60;99.90;;;;;;5094600;28;20081;-77
2022/04/01 04:37:57;;;;;;;14.60;9.10;;;0.60;99.90;;;;;;5092258;28;20027;-79
2022/04/01 04:40:24;;;;;;;12.80;9.07;;;0.60;99.90;;;;;;5074762;28;20056;-80
2022/04/01 04:42:51;;;;;;;10.95;9.40;;;0.60;99.90;;;;;;5074678;28;20055;-77
2022/04/01 04:45:22;;;;;;;10.77;8.68;;;0.60;99.90;;;;;;5074746;28;20016;-76
2022/04/01 04:47:48;;;;;;;14.48;9.70;;;0.50;99.90;;;;;;5074395;28;20098;-77
2022/04/01 04:50:18;;;;;;;13.40;8.23;;;0.50;99.90;;;;;;5074266;28;20016;-81
2022/04/01 04:52:53;;;;;;;12.90;10.80;;;0.60;99.90;;;;;;5055956;28;20020;-79
2022/04/01 04:55:20;;;;;;;10.73;8.63;;;0.50;99.90;;;;;;5073714;28;20021;-77
2022/04/01 04:57:48;;;;;;;15.40;8.88;;;0.50;99.90;;;;;;5055692;28;20024;-77
2022/04/01 05:00:21;;;;;;;15.73;9.60;;;0.50;99.90;;;;;;5074086;28;20021;-78
2022/04/01 05:03:25;;;;;;;12.80;9.82;;;0.60;99.90;;;;;;5073842;28;20120;-79
2022/04/01 05:05:56;;;;;;;14.48;10.02;;;0.60;99.90;;;;;;5018322;28;20051;-78
2022/04/01 05:08:48;;;;;;;12.27;9.25;;;0.60;99.90;;;;;;5055300;28;20021;-77
2022/04/01 05:11:22;;;;;;;12.25;7.95;;;0.60;99.90;;;;;;5055223;28;20584;-77
2022/04/01 05:14:05;;;;;;;9.88;6.38;;;0.60;99.90;;;;;;5055441;28;20052;-77
2022/04/01 05:16:47;;;;;;;12.75;8.15;;;0.70;99.90;;;;;;5075724;28;20038;-76
2022/04/01 05:19:17;;;;;;;12.73;8.10;;;0.60;99.90;;;;;;5093655;28;20032;-78
2022/04/01 05:21:58;;;;;;;9.57;7.68;;;0.70;99.90;;;;;;5093294;28;20028;-78
2022/04/01 05:24:32;;;;;;;12.30;8.52;;;0.70;99.90;;;;;;5093336;28;20032;-79
2022/04/01 05:27:00;;;;;;;12.95;9.55;;;0.80;99.90;;;;;;5073230;28;20020;-78
2022/04/01 05:29:31;;;;;;;14.68;9.55;;;0.80;99.90;;;;;;5073476;28;20039;-78
2022/04/01 05:32:05;;;;;;;15.00;10.07;;;0.80;99.90;;;;;;5056570;28;20084;-78
2022/04/01 05:34:43;;;;;;;12.05;8.40;;;0.70;99.90;;;;;;5073911;28;20043;-77
2022/04/01 05:37:10;;;;;;;7.68;6.32;;;0.70;99.90;;;;;;5059253;28;20048;-78
2022/04/01 05:39:38;;;;;;;12.48;8.10;;;0.70;99.90;;;;;;5071805;28;20024;-77
2022/04/01 05:42:07;;;;;;;8.55;7.50;;;0.60;99.90;;;;;;5073080;28;20035;-79
2022/04/01 05:44:34;;;;;;;11.52;8.30;;;0.60;99.90;;;;;;5073396;28;20020;-78
2022/04/01 05:47:00;;;;;;;12.52;8.23;;;0.60;99.90;;;;;;5073122;28;20469;-77
2022/04/01 05:53:14;;;;;;;11.93;9.38;;;0.70;99.90;;;;;;5073817;28;20077;-80
2022/04/01 05:55:40;;;;;;;14.13;8.40;;;0.70;99.90;;;;;;5072932;28;20017;-81
2022/04/01 05:58:06;;;;;;;12.23;8.45;;;0.70;99.90;;;;;;5072902;28;20085;-80
2022/04/01 06:01:04;;;;;;;12.80;8.55;;;0.80;99.90;;;;;;5072600;28;20104;-79
2022/04/01 06:03:45;;;;;;;9.02;6.97;;;0.70;99.90;;;;;;5049245;28;20101;-80
2022/04/01 06:06:26;;;;;;;9.57;7.95;;;0.70;99.50;;;;;;5072691;28;20386;-79
2022/04/01 06:09:07;;;;;;;11.60;9.25;;;0.70;99.70;;;;;;5072888;28;20535;-79
2022/04/01 06:11:50;;;;;;;12.20;9.15;;;0.70;99.60;;;;;;5056821;28;20455;-78
2022/04/01 06:14:53;;;;;;;12.85;9.85;;;0.60;99.70;;;;;;5038727;28;20466;-78
2022/04/01 06:17:23;;;;;;;10.52;6.60;;;0.80;99.90;;;;;;5073060;28;20076;-79
2022/04/01 06:19:51;;;;;;;14.82;10.02;;;0.80;99.90;;;;;;5073840;28;20471;-76
2022/04/01 06:22:20;;;;;;;9.57;7.45;;;0.80;99.90;;;;;;5073313;28;20032;-79
2022/04/01 06:24:58;;;;;;;13.23;8.93;;;0.80;99.70;;;;;;5072728;28;20358;-80
2022/04/01 06:27:47;;;;;;;10.35;6.80;;;0.80;99.60;;;;;;5072507;28;20383;-76
2022/04/01 06:30:18;;;;;;;17.38;10.95;;;0.70;99.50;;;;;;5072783;28;20032;-78
2022/04/01 06:32:50;;;;;;;23.40;11.68;;;0.70;99.60;;;;;;5072262;28;20031;-78
2022/04/01 06:35:24;;;;;;;19.85;10.45;;;0.80;99.60;;;;;;5072498;28;20103;-78
2022/04/01 06:37:57;;;;;;;14.38;10.70;;;0.90;99.60;;;;;;5072297;28;20020;-76
2022/04/01 06:40:27;;;;;;;14.70;10.50;;;0.90;99.20;;;;;;5072108;28;20028;-79
2022/04/01 06:42:54;;;;;;;11.80;8.25;;;0.90;99.20;;;;;;5071653;28;20028;-80
2022/04/01 06:45:20;;;;;;;16.15;9.70;;;1.00;99.20;;;;;;5072194;28;20016;-80
2022/04/01 06:47:46;;;;;;;11.90;8.90;;;1.10;98.70;;;;;;5071683;28;20028;-76
2022/04/01 06:50:13;;;;;;;18.83;10.55;;;1.00;98.60;;;;;;5072032;28;20044;-78
2022/04/01 06:52:39;;;;;;;10.68;7.65;;;1.00;98.90;;;;;;5071907;28;20033;-76
2022/04/01 06:55:08;;;;;;;10.52;8.38;;;1.10;98.80;;;;;;5072754;28;20017;-74
2022/04/01 06:57:34;;;;;;;14.20;10.50;;;1.30;98.90;;;;;;5071780;28;20206;-75
2022/04/01 07:00:00;;;;;;;11.63;9.25;;;1.50;98.40;;;;;;5071835;28;20075;-75
2022/04/01 07:02:26;;;;;;;13.75;9.38;;;1.60;98.40;;;;;;5070481;28;20424;-77
2022/04/01 07:04:51;;;;;;;12.13;8.88;;;1.80;98.10;;;;;;5071494;28;20025;-78
2022/04/01 07:07:18;;;;;;;14.18;10.02;;;1.80;97.60;;;;;;5072015;28;20028;-77
2022/04/01 07:09:44;;;;;;;14.43;9.95;;;1.90;97.40;;;;;;5071794;28;20035;-76
2022/04/01 07:12:09;;;;;;;14.50;9.75;;;1.80;97.10;;;;;;5091878;28;20432;-76
2022/04/01 07:14:35;;;;;;;16.40;8.95;;;1.70;97.00;;;;;;5092068;28;20485;-77
2022/04/01 07:17:01;;;;;;;12.23;9.00;;;1.80;97.30;;;;;;5091710;28;20091;-77
2022/04/01 07:19:28;;;;;;;10.05;7.22;;;1.80;97.10;;;;;;5091750;28;20430;-77
2022/04/01 07:21:53;;;;;;;10.77;8.65;;;1.60;96.50;;;;;;5091027;28;20054;-77
2022/04/01 07:24:19;;;;;;;11.88;8.45;;;1.50;96.70;;;;;;5092774;28;20111;-76
2022/04/01 07:26:46;;;;;;;8.13;6.10;;;1.70;96.80;;;;;;5096337;28;20043;-76
2022/04/01 07:29:12;;;;;;;10.60;8.27;;;1.70;95.50;;;;;;5096303;28;20020;-77
2022/04/01 07:34:36;;;;;;;11.30;7.25;;;1.40;96.10;;;;;;5095808;28;20043;-76
2022/04/01 07:37:03;;;;;;;10.82;7.80;;;1.20;95.90;;;;;;5095836;28;20090;-76
2022/04/01 07:39:29;;;;;;;11.73;8.52;;;1.20;96.20;;;;;;5094687;28;20064;-76
2022/04/01 07:41:56;;;;;;;9.82;8.02;;;1.30;96.60;;;;;;5094953;28;20555;-79
2022/04/01 07:44:22;;;;;;;11.43;8.13;;;1.20;96.10;;;;;;5100172;28;20085;-78
2022/04/01 07:46:49;;;;;;;11.63;7.80;;;1.20;96.40;;;;;;5078363;28;20123;-76
2022/04/01 07:49:15;;;;;;;13.20;10.10;;;1.30;96.10;;;;;;5096602;28;20023;-75
2022/04/01 07:51:43;;;;;;;14.93;9.32;;;1.20;96.00;;;;;;5096029;28;20031;-77
2022/04/01 07:54:08;;;;;;;7.97;5.75;;;1.20;96.10;;;;;;5096008;28;20028;-76
2022/04/01 07:56:36;;;;;;;15.07;9.05;;;1.30;96.10;;;;;;5096230;28;20028;-75
2022/04/01 07:59:04;;;;;;;13.27;8.52;;;1.30;95.90;;;;;;5095186;28;20187;-76
2022/04/01 08:01:30;;;;;;;15.18;9.85;;;1.30;95.90;;;;;;5095943;28;20144;-76
2022/04/01 08:03:56;;;;;;;12.95;6.30;;;1.40;96.00;;;;;;5077216;28;20500;-78
2022/04/01 08:06:22;;;;;;;11.43;9.68;;;1.50;95.40;;;;;;5095141;28;20028;-77
2022/04/01 08:08:47;;;;;;;14.27;9.13;;;1.50;95.50;;;;;;5095140;28;20028;-76
2022/04/01 08:11:13;;;;;;;13.68;8.43;;;1.80;95.40;;;;;;5094802;28;20089;-76
2022/04/01 08:13:39;;;;;;;11.77;7.53;;;2.40;94.50;;;;;;5094151;28;20098;-77
2022/04/01 08:16:05;;;;;;;10.45;7.80;;;2.70;93.70;;;;;;5076746;28;20115;-77
2022/04/01 08:18:30;;;;;;;8.80;6.22;;;3.40;93.60;;;;;;5094692;28;20058;-78
2022/04/01 08:20:56;;;;;;;13.70;7.13;;;3.80;90.90;;;;;;5095092;28;20024;-75
2022/04/01 08:23:22;;;;;;;9.23;6.45;;;3.50;90.00;;;;;;5094583;28;20111;-75
2022/04/01 08:25:48;;;;;;;8.23;6.38;;;3.50;90.60;;;;;;5094904;28;20024;-77
2022/04/01 08:28:15;;;;;;;10.52;7.75;;;3.40;90.40;;;;;;5094904;28;20020;-77
2022/04/01 08:30:41;;;;;;;7.45;6.57;;;3.40;90.30;;;;;;5094097;28;20048;-77
2022/04/01 08:33:07;;;;;;;13.77;7.28;;;3.40;89.80;;;;;;5095374;28;20063;-77
2022/04/01 08:35:33;;;;;;;8.57;6.70;;;3.20;89.80;;;;;;5094244;28;20027;-76
2022/04/01 08:38:00;;;;;;;9.27;5.95;;;3.40;90.40;;;;;;5094979;28;20101;-78
2022/04/01 08:40:29;;;;;;;9.67;6.60;;;3.30;88.90;;;;;;5059925;28;20020;-77
2022/04/01 08:42:55;;;;;;;7.32;6.28;;;3.20;89.80;;;;;;5094160;28;20765;-76
2022/04/01 08:45:21;;;;;;;8.52;6.93;;;3.40;89.10;;;;;;5094561;28;20125;-77
2022/04/01 08:47:48;;;;;;;10.13;6.72;;;3.40;88.50;;;;;;5093383;28;20423;-79
2022/04/01 08:50:14;;;;;;;8.57;6.00;;;3.30;88.80;;;;;;5094367;28;20389;-76
2022/04/01 08:52:40;;;;;;;9.75;6.20;;;3.40;88.00;;;;;;5094086;28;20032;-76
2022/04/01 08:55:08;;;;;;;7.70;6.90;;;3.60;88.30;;;;;;5094313;28;20028;-76
2022/04/01 08:57:42;;;;;;;6.55;5.20;;;3.70;86.50;;;;;;5075858;28;20035;-76
2022/04/01 09:00:14;;;;;;;7.93;4.97;;;3.40;85.70;;;;;;5075933;28;20032;-75
2022/04/01 09:02:41;;;;;;;7.82;6.30;;;3.20;86.60;;;;;;5093183;28;20032;-78
2022/04/01 09:05:08;;;;;;;10.57;6.47;;;3.10;86.00;;;;;;5094110;28;20016;-78
2022/04/01 09:07:34;;;;;;;6.97;4.45;;;3.00;86.90;;;;;;5093926;28;20031;-77
2022/04/01 09:10:06;;;;;;;8.27;5.95;;;3.20;87.50;;;;;;5093721;28;20451;-77
2022/04/01 09:12:34;;;;;;;11.38;6.28;;;3.40;85.90;;;;;;5075549;28;20094;-77
2022/04/01 09:15:01;;;;;;;8.13;5.88;;;3.60;86.00;;;;;;5093887;28;20176;-78
2022/04/01 09:17:44;;;;;;;5.90;5.17;;;3.80;86.10;;;;;;5075597;28;20120;-76
2022/04/01 09:20:12;;;;;;;9.63;5.88;;;4.10;85.50;;;;;;5073781;28;20035;-77
2022/04/01 09:22:38;;;;;;;;;;;4.30;85.10;;;;;;5073913;28;20061;-78
2022/04/01 09:25:09;;;;;;;8.57;6.30;;;4.60;85.60;;;;;;5081651;28;19904;-76
2022/04/01 09:27:52;;;;;;;8.07;5.82;;;4.50;83.00;;;;;;5093665;28;20024;-75
2022/04/01 09:30:30;;;;;;;9.02;6.18;;;4.40;83.10;;;;;;5093587;28;20024;-78
2022/04/01 09:33:03;;;;;;;5.80;4.38;;;4.50;82.80;;;;;;5093524;28;20026;-77
2022/04/01 09:35:32;;;;;;;10.00;6.38;;;4.40;81.60;;;;;;5091477;28;20357;-77
2022/04/01 09:38:09;;;;;;;8.40;6.63;;;4.20;81.10;;;;;;5074672;28;20036;-77
2022/04/01 09:40:39;;;;;;;6.90;4.90;;;4.10;82.40;;;;;;5093300;28;20077;-77
2022/04/01 09:43:07;;;;;;;10.73;6.45;;;4.00;81.80;;;;;;5084868;28;20024;-76
2022/04/01 09:45:35;;;;;;;6.47;4.53;;;4.00;82.10;;;;;;5093582;28;20122;-77
2022/04/01 09:48:07;;;;;;;9.73;5.95;;;4.30;82.10;;;;;;5093630;28;20016;-77
2022/04/01 09:50:34;;;;;;;9.90;6.32;;;4.50;81.60;;;;;;5094327;28;20020;-79
2022/04/01 09:53:11;;;;;;;4.13;3.53;;;5.00;81.20;;;;;;5092848;28;20020;-78
2022/04/01 09:55:37;;;;;;;;;;;5.10;77.20;;;;;;5093621;28;20020;-77
2022/04/01 09:58:05;;;;;;;12.32;5.57;;;4.90;76.80;;;;;;5074882;28;19935;-79
2022/04/01 10:00:32;;;;;;;10.48;6.63;;;5.30;78.70;;;;;;5074645;28;20067;-78
2022/04/01 10:02:59;;;;;;;5.70;4.68;;;6.60;77.20;;;;;;5092882;28;20066;-80
2022/04/01 10:05:27;;;;;;;8.20;6.15;;;7.80;72.00;;;;;;5092822;28;20479;-77
2022/04/01 10:07:57;;;;;;;5.53;3.83;;;8.40;67.60;;;;;;5091784;28;20035;-78
2022/04/01 10:10:25;;;;;;;7.60;5.47;;;8.80;63.30;;;;;;5092627;28;20043;-78
2022/04/01 10:12:52;;;;;;;10.98;8.73;;;8.70;62.90;;;;;;5092829;28;20062;-77
2022/04/01 10:15:19;;;;;;;10.40;6.97;;;9.00;62.00;;;;;;5092562;28;20053;-77
2022/04/01 10:17:46;;;;;;;7.87;6.10;;;9.40;62.60;;;;;;5092427;28;20031;-79
2022/04/01 10:20:13;;;;;;;9.80;5.90;;;10.00;62.80;;;;;;5092837;28;20389;-75
2022/04/01 10:22:41;;;;;;;6.05;4.90;;;10.40;56.90;;;;;;5092501;28;20051;-78
2022/04/01 10:25:25;;;;;;;6.40;4.82;;;9.90;57.70;;;;;;5091749;28;20020;-77
2022/04/01 10:27:52;;;;;;;7.68;5.68;;;9.20;58.90;;;;;;5092296;28;20524;-76
2022/04/01 10:30:20;;;;;;;;;;;8.50;60.20;;;;;;5092438;28;20019;-77
2022/04/01 10:32:46;;;;;;;;;;;8.20;62.90;;;;;;5092557;28;20387;-79
2022/04/01 10:35:27;;;;;;;9.53;6.97;;;7.90;63.60;;;;;;5074434;28;20313;-77
2022/04/01 10:38:13;;;;;;;9.60;5.15;;;7.70;64.20;;;;;;5092456;28;20129;-77
2022/04/01 10:40:41;;;;;;;10.85;6.38;;;7.70;64.20;;;;;;5092171;28;20016;-78
2022/04/01 10:43:21;;;;;;;6.63;5.35;;;7.40;63.50;;;;;;5073261;28;20086;-78
2022/04/01 10:46:00;;;;;;;8.60;5.95;;;7.10;64.60;;;;;;5072631;28;20453;-75
2022/04/01 10:51:42;;;;;;;12.25;5.78;;;6.80;63.90;;;;;;5092004;28;20078;-79
2022/04/01 10:54:12;;;;;;;6.63;4.93;;;6.80;65.00;;;;;;5092502;28;20032;-76
2022/04/01 10:56:40;;;;;;;5.45;3.72;;;6.90;64.40;;;;;;5092136;28;20103;-76
2022/04/01 10:59:12;;;;;;;11.00;5.40;;;6.80;63.80;;;;;;5092033;28;20077;-76
2022/04/01 11:01:53;;;;;;;6.80;4.40;;;6.40;65.00;;;;;;5091052;28;20020;-76
2022/04/01 11:04:18;;;;;;;12.02;5.50;;;6.50;65.50;;;;;;5091925;28;20044;-77
2022/04/01 11:07:06;;;;;;;6.30;4.45;;;6.60;65.70;;;;;;5091894;28;20081;-77
2022/04/01 11:09:47;;;;;;;8.80;4.95;;;6.90;65.10;;;;;;5091986;28;20460;-77
2022/04/01 11:12:18;;;;;;;11.02;4.40;;;7.10;63.60;;;;;;5092022;28;20834;-77
2022/04/01 11:14:59;;;;;;;7.40;4.70;;;6.80;63.70;;;;;;5073827;28;20017;-77
2022/04/01 11:17:52;;;;;;;6.53;4.72;;;6.50;64.10;;;;;;5090969;28;20024;-77
2022/04/01 11:20:21;;;;;;;7.30;4.32;;;6.60;64.60;;;;;;5092754;28;20028;-76
2022/04/01 11:22:53;;;;;;;5.20;3.40;;;6.70;64.30;;;;;;5092448;28;20107;-78
2022/04/01 11:25:24;;;;;;;9.63;6.22;;;6.90;63.60;;;;;;5091795;28;20024;-80
2022/04/01 11:28:01;;;;;;;8.27;4.22;;;7.00;62.40;;;;;;5092104;28;20443;-77
2022/04/01 11:30:43;;;;;;;6.40;4.30;;;7.00;62.40;;;;;;5091797;28;20182;-79
2022/04/01 11:33:18;;;;;;;7.97;5.07;;;6.90;61.30;;;;;;5091941;28;20028;-77
2022/04/01 11:35:49;;;;;;;6.78;4.15;;;6.50;61.40;;;;;;5091040;28;20030;-76
2022/04/01 11:38:18;;;;;;;7.47;4.38;;;6.30;62.60;;;;;;5092075;28;20047;-77
2022/04/01 11:40:51;;;;;;;5.70;4.22;;;6.30;62.70;;;;;;5091736;28;20040;-79
2022/04/01 11:43:19;;;;;;;6.47;4.35;;;6.30;63.40;;;;;;5091479;28;20595;-77
2022/04/01 11:45:46;;;;;;;;;;;6.40;62.90;;;;;;5073781;28;20118;-76
2022/04/01 11:48:26;;;;;;;6.72;3.85;;;6.30;62.50;;;;;;5091392;28;20420;-77
2022/04/01 11:51:14;;;;;;;9.35;4.07;;;6.30;62.70;;;;;;5073375;28;20036;-76
2022/04/01 11:53:47;;;;;;;7.40;3.95;;;6.20;63.10;;;;;;5090877;28;20020;-77
2022/04/01 11:56:13;;;;;;;5.90;3.50;;;6.20;62.80;;;;;;5091809;28;20020;-76
2022/04/01 11:58:59;;;;;;;7.05;3.90;;;6.20;62.90;;;;;;5091508;28;20020;-76
2022/04/01 12:01:31;;;;;;;5.43;3.90;;;6.30;63.20;;;;;;5091660;28;20051;-77
2022/04/01 12:04:12;;;;;;;9.48;4.20;;;6.30;62.40;;;;;;5091662;28;20093;-78
2022/04/01 12:09:30;;;;;;;6.35;4.10;;;6.60;61.90;;;;;;5090835;28;20070;-75
2022/04/01 12:11:58;;;;;;;7.40;3.65;;;6.60;60.80;;;;;;5095134;28;20046;-76
2022/04/01 12:14:24;;;;;;;5.88;4.03;;;6.60;61.80;;;;;;5061731;28;20032;-76
2022/04/01 12:16:50;;;;;;;4.65;2.72;;;6.60;60.90;;;;;;5096450;28;20089;-77
2022/04/01 12:19:20;;;;;;;15.70;4.78;;;6.40;60.50;;;;;;5095150;28;20031;-76
2022/04/01 12:21:50;;;;;;;8.65;4.85;;;6.20;61.10;;;;;;5076449;28;20161;-79
2022/04/01 12:24:17;;;;;;;8.10;4.18;;;6.10;61.70;;;;;;5093770;28;20035;-76
2022/04/01 12:26:45;;;;;;;6.82;3.97;;;6.10;62.00;;;;;;5095141;28;20020;-77
2022/04/01 12:29:23;;;;;;;4.82;3.53;;;6.20;61.60;;;;;;5094973;28;20028;-77
2022/04/01 12:32:00;;;;;;;6.05;3.70;;;6.20;61.30;;;;;;5094946;28;20500;-77
2022/04/01 12:34:27;;;;;;;7.38;4.20;;;6.30;60.60;;;;;;5095007;28;20100;-75
2022/04/01 12:37:06;;;;;;;4.35;2.80;;;6.30;60.00;;;;;;5093489;28;20028;-77
2022/04/01 12:39:35;;;;;;;4.60;3.58;;;6.30;59.50;;;;;;5094531;28;20017;-79
2022/04/01 12:42:12;;;;;;;10.27;4.28;;;6.20;59.30;;;;;;5094324;28;20031;-79
2022/04/01 12:44:39;;;;;;;4.38;2.92;;;6.10;59.70;;;;;;5094481;28;20546;-78
2022/04/01 12:47:06;;;;;;;;;;;6.10;59.20;;;;;;5094974;28;20020;-76
2022/04/01 12:49:33;;;;;;;8.50;3.88;;;6.10;59.30;;;;;;5094765;28;19904;-80
2022/04/01 12:52:27;;;;;;;8.50;3.45;;;6.20;59.80;;;;;;5075060;28;20068;-78
2022/04/01 12:54:58;;;;;;;6.20;3.83;;;6.30;58.80;;;;;;5057654;28;20028;-78
2022/04/01 12:57:24;;;;;;;4.90;3.40;;;6.30;58.90;;;;;;5094283;28;20024;-77
2022/04/01 12:59:51;;;;;;;11.43;4.82;;;6.20;57.90;;;;;;5076116;28;20135;-77
2022/04/01 13:02:19;;;;;;;4.15;3.65;;;6.10;59.00;;;;;;5094079;28;20038;-76
2022/04/01 13:05:11;;;;;;;5.13;3.50;;;6.10;59.00;;;;;;5094185;28;20016;-76
2022/04/01 13:07:39;;;;;;;4.72;3.38;;;6.10;58.60;;;;;;5094132;28;20016;-77
2022/04/01 13:10:07;;;;;;;8.52;5.05;;;6.00;59.90;;;;;;5093092;28;20040;-77
2022/04/01 13:12:39;;;;;;;6.65;4.35;;;6.00;60.00;;;;;;5093920;28;20027;-78
2022/04/01 13:15:08;;;;;;;7.00;4.28;;;6.00;59.80;;;;;;5093967;28;20049;-78
2022/04/01 13:17:49;;;;;;;9.18;3.95;;;6.10;60.00;;;;;;5075614;28;20020;-77
2022/04/01 13:20:17;;;;;;;8.02;4.22;;;6.10;59.70;;;;;;5075298;28;20046;-77